Time;durP1;ratioP1;P1;durP2;ratioP2;P2;SDS_P1;SDS_P2;PMS_P1;PMS_P2;Temp;Humidity;BMP_temperature;BMP_pressure;BME280_temperature;BME280_humidity;BME280_pressure;Samples;Min_cycle;Max_cycle;Signal;HPM_P1;HPM_P2
2022/10/11 00:01:42;;;;;;;14.02;3.42;;;;;;;;;;5091439;28;20422;-77
2022/10/11 00:04:08;;;;;;;15.05;3.75;;;;;;;;;;5073740;28;20418;-77
2022/10/11 00:06:36;;;;;;;14.75;3.60;;;;;;;;;;5071202;28;20515;-77
2022/10/11 00:09:03;;;;;;;15.18;3.92;;;;;;;;;;5094414;28;20398;-77
2022/10/11 00:11:29;;;;;;;18.48;3.70;;;;;;;;;;5076851;28;20425;-77
2022/10/11 00:13:55;;;;;;;19.75;3.72;;;;;;;;;;5109801;28;20445;-77
2022/10/11 00:16:22;;;;;;;15.75;3.35;;;;;;;;;;5076397;28;20410;-78
2022/10/11 00:18:48;;;;;;;14.63;3.75;;;;;;;;;;5092923;28;20539;-77
2022/10/11 00:21:17;;;;;;;12.93;2.97;;;;;;;;;;5090542;28;20429;-77
2022/10/11 00:23:43;;;;;;;15.35;3.60;;;;;;;;;;5091980;28;20409;-76
2022/10/11 00:26:10;;;;;;;15.07;3.50;;;;;;;;;;5075236;28;20418;-76
2022/10/11 00:28:36;;;;;;;15.23;3.92;;;;;;;;;;5075847;28;20394;-76
2022/10/11 00:31:06;;;;;;;12.40;3.72;;;;;;;;;;5075694;28;20397;-76
2022/10/11 00:33:32;;;;;;;14.48;3.38;;;;;;;;;;5092639;28;20463;-77
2022/10/11 00:35:59;;;;;;;15.60;3.67;;;6.90;99.90;;;;;;5074292;28;20420;-77
2022/10/11 00:38:25;;;;;;;15.35;3.35;;;;;;;;;;5073659;28;20418;-77
2022/10/11 00:40:51;;;;;;;16.20;3.95;;;;;;;;;;5092333;28;20433;-77
2022/10/11 00:43:18;;;;;;;16.23;3.70;;;;;;;;;;5092348;28;20422;-77
2022/10/11 00:45:56;;;;;;;17.65;3.33;;;;;;;;;;5058923;28;20422;-77
2022/10/11 00:48:29;;;;;;;16.90;3.20;;;;;;;;;;5092006;28;20435;-76
2022/10/11 00:50:56;;;;;;;14.68;3.78;;;;;;;;;;5075991;28;20425;-77
2022/10/11 00:53:23;;;;;;;15.32;3.30;;;;;;;;;;5088100;28;20461;-77
2022/10/11 00:55:54;;;;;;;18.25;3.67;;;7.00;99.90;;;;;;5074648;28;20426;-77
2022/10/11 00:58:22;;;;;;;17.77;3.63;;;6.90;99.90;;;;;;5093469;28;20390;-77
2022/10/11 01:00:48;;;;;;;15.40;4.05;;;;;;;;;;5075010;28;20413;-77
2022/10/11 01:03:15;;;;;;;15.68;4.50;;;;;;;;;;5088337;28;20484;-78
2022/10/11 01:05:42;;;;;;;21.60;5.13;;;;;;;;;;5073753;28;20414;-77
2022/10/11 01:08:08;;;;;;;14.68;4.18;;;;;;;;;;5073710;28;20416;-77
2022/10/11 01:10:34;;;;;;;17.47;3.90;;;;;;;;;;5090684;28;20485;-76
2022/10/11 01:13:19;;;;;;;17.08;4.03;;;;;;;;;;5056607;28;20422;-76
2022/10/11 01:15:55;;;;;;;15.55;3.90;;;;;;;;;;5091162;28;20402;-75
2022/10/11 01:18:39;;;;;;;15.95;3.58;;;;;;;;;;5091489;28;20989;-77
2022/10/11 01:21:35;;;;;;;16.43;3.50;;;7.40;99.90;;;;;;5090156;28;20422;-76
2022/10/11 01:24:23;;;;;;;16.27;3.50;;;;;;;;;;5056232;28;20414;-75
2022/10/11 01:27:07;;;;;;;16.38;3.60;;;;;;;;;;5054835;28;20515;-76
2022/10/11 01:29:46;;;;;;;16.55;3.45;;;;;;;;;;5073761;28;20410;-76
2022/10/11 01:32:15;;;;;;;15.10;3.60;;;;;;;;;;5073510;28;20989;-75
2022/10/11 01:35:02;;;;;;;18.02;3.92;;;;;;;;;;5089247;28;20479;-76
2022/10/11 01:37:33;;;;;;;15.32;3.70;;;;;;;;;;5041093;28;20465;-76
2022/10/11 01:40:22;;;;;;;17.77;3.80;;;6.70;99.90;;;;;;5072933;28;20410;-76
2022/10/11 01:42:48;;;;;;;14.88;3.70;;;;;;;;;;5068314;28;20420;-76
2022/10/11 01:45:16;;;;;;;17.02;4.00;;;;;;;;;;5069838;28;20446;-77
2022/10/11 01:47:44;;;;;;;15.18;3.35;;;;;;;;;;5070552;28;20760;-77
2022/10/11 01:50:34;;;;;;;12.80;3.47;;;;;;;;;;5070418;28;20419;-77
2022/10/11 01:53:06;;;;;;;14.57;3.38;;;;;;;;;;5071687;28;20415;-75
2022/10/11 01:55:43;;;;;;;19.27;3.90;;;;;;;;;;5069405;28;20446;-76
2022/10/11 01:58:16;;;;;;;19.38;3.75;;;;;;;;;;5070591;28;20395;-76
2022/10/11 02:00:52;;;;;;;17.23;3.55;;;7.30;99.90;;;;;;5071398;28;20406;-76
2022/10/11 02:03:22;;;;;;;16.27;3.83;;;;;;;;;;5069560;28;20431;-77
2022/10/11 02:05:48;;;;;;;15.30;3.67;;;;;;;;;;5067844;28;20811;-77
2022/10/11 02:08:23;;;;;;;13.65;3.38;;;;;;;;;;5053658;28;20914;-77
2022/10/11 02:10:49;;;;;;;14.90;4.07;;;;;;;;;;5053834;28;20408;-77
2022/10/11 02:13:31;;;;;;;15.43;4.07;;;;;;;;;;5069963;28;20428;-77
2022/10/11 02:16:00;;;;;;;17.58;4.20;;;;;;;;;;5050861;28;20426;-77
2022/10/11 02:18:31;;;;;;;11.98;3.55;;;;;;;;;;5070904;28;20820;-77
2022/10/11 02:20:59;;;;;;;16.80;3.28;;;;;;;;;;5071201;28;20408;-76
2022/10/11 02:23:28;;;;;;;14.45;3.90;;;;;;;;;;5070283;28;20493;-77
2022/10/11 02:25:55;;;;;;;16.48;3.53;;;;;;;;;;5069850;28;20415;-76
2022/10/11 02:28:24;;;;;;;16.40;3.67;;;;;;;;;;5069405;28;20404;-76
2022/10/11 02:30:51;;;;;;;15.60;3.15;;;;;;;;;;5071807;28;20972;-77
2022/10/11 02:33:20;;;;;;;17.25;4.50;;;;;;;;;;5070085;28;20411;-76
2022/10/11 02:35:48;;;;;;;17.83;4.27;;;;;;;;;;5071266;28;20411;-76
2022/10/11 02:38:19;;;;;;;13.80;3.80;;;;;;;;;;5070212;28;20903;-76
2022/10/11 02:40:47;;;;;;;16.60;3.70;;;;;;;;;;5070847;28;20771;-76
2022/10/11 02:43:16;;;;;;;17.65;3.83;;;;;;;;;;5079671;28;20814;-76
2022/10/11 02:46:08;;;;;;;11.52;3.90;;;;;;;;;;5090071;28;20742;-77
2022/10/11 02:48:35;;;;;;;15.52;3.90;;;;;;;;;;5068804;28;20414;-76
2022/10/11 02:51:02;;;;;;;15.18;3.63;;;6.50;99.90;;;;;;5068624;28;20418;-76
2022/10/11 02:53:28;;;;;;;17.05;3.83;;;;;;;;;;5074065;28;20417;-77
2022/10/11 02:55:55;;;;;;;20.88;3.72;;;6.50;99.90;;;;;;5073382;28;20394;-77
2022/10/11 02:58:21;;;;;;;16.70;3.50;;;;;;;;;;5105462;28;20935;-75
2022/10/11 03:00:48;;;;;;;16.73;3.80;;;;;;;;;;5089288;28;20510;-76
2022/10/11 03:03:14;;;;;;;19.35;3.85;;;;;;;;;;5072793;28;20838;-76
2022/10/11 03:05:40;;;;;;;18.73;3.60;;;;;;;;;;5073664;28;20398;-76
2022/10/11 03:08:07;;;;;;;12.75;3.10;;;;;;;;;;5089193;28;20527;-76
2022/10/11 03:10:34;;;;;;;19.23;4.32;;;6.50;99.90;;;;;;5092392;28;20421;-76
2022/10/11 03:13:00;;;;;;;18.85;3.63;;;;;;;;;;5056467;28;20448;-77
2022/10/11 03:15:26;;;;;;;17.73;4.23;;;;;;;;;;5105450;28;20504;-77
2022/10/11 03:17:52;;;;;;;15.45;3.53;;;;;;;;;;5072506;28;20452;-77
2022/10/11 03:20:18;;;;;;;15.88;3.60;;;;;;;;;;5105421;28;20540;-75
2022/10/11 03:22:44;;;;;;;15.45;3.80;;;;;;;;;;5090066;28;20417;-76
2022/10/11 03:25:10;;;;;;;17.98;3.75;;;;;;;;;;5071234;28;20420;-75
2022/10/11 03:27:36;;;;;;;15.23;3.10;;;;;;;;;;5056684;28;20410;-76
2022/10/11 03:30:03;;;;;;;12.75;3.00;;;;;;;;;;5072033;28;20475;-76
2022/10/11 03:32:29;;;;;;;20.25;3.28;;;;;;;;;;5071157;28;20449;-76
2022/10/11 03:34:56;;;;;;;14.30;3.60;;;;;;;;;;5087938;28;20418;-77
2022/10/11 03:37:22;;;;;;;13.77;3.40;;;;;;;;;;5071018;28;20421;-76
2022/10/11 03:39:49;;;;;;;16.33;3.97;;;;;;;;;;5074297;28;20409;-77
2022/10/11 03:42:15;;;;;;;11.63;3.10;;;;;;;;;;5060038;28;20449;-77
2022/10/11 03:44:41;;;;;;;16.27;3.10;;;;;;;;;;5039099;28;20446;-76
2022/10/11 03:47:07;;;;;;;11.93;3.13;;;;;;;;;;5092463;28;20451;-76
2022/10/11 03:49:33;;;;;;;14.25;3.63;;;;;;;;;;5076328;28;20920;-75
2022/10/11 03:52:00;;;;;;;14.40;3.38;;;;;;;;;;5075585;28;20921;-76
2022/10/11 03:54:26;;;;;;;13.85;3.05;;;;;;;;;;5092358;28;20460;-76
2022/10/11 03:56:52;;;;;;;14.00;3.07;;;;;;;;;;5076466;28;20401;-77
2022/10/11 03:59:18;;;;;;;13.57;3.40;;;;;;;;;;5091480;28;20430;-77
2022/10/11 04:01:44;;;;;;;13.05;3.05;;;;;;;;;;5091883;28;20448;-77
2022/10/11 04:04:10;;;;;;;17.67;3.08;;;;;;;;;;5091285;28;20410;-77
2022/10/11 04:06:36;;;;;;;16.35;3.85;;;;;;;;;;5092671;28;20865;-77
2022/10/11 04:09:02;;;;;;;11.38;3.17;;;;;;;;;;5093452;28;20851;-78
2022/10/11 04:11:28;;;;;;;15.52;3.47;;;;;;;;;;5057989;28;20436;-75
2022/10/11 04:13:55;;;;;;;14.55;3.55;;;;;;;;;;5092279;28;20417;-77
2022/10/11 04:16:21;;;;;;;16.87;4.40;;;;;;;;;;5075047;28;20424;-76
2022/10/11 04:18:48;;;;;;;14.48;3.60;;;;;;;;;;5077700;28;20771;-76
2022/10/11 04:21:14;;;;;;;17.80;3.77;;;;;;;;;;5075111;28;20426;-76
2022/10/11 04:23:40;;;;;;;15.18;4.30;;;;;;;;;;5091407;28;20509;-76
2022/10/11 04:26:07;;;;;;;15.73;4.38;;;;;;;;;;5092674;28;20919;-76
2022/10/11 04:28:33;;;;;;;14.27;3.73;;;;;;;;;;5091951;28;20414;-76
2022/10/11 04:31:00;;;;;;;11.57;3.27;;;;;;;;;;5074594;28;20410;-76
2022/10/11 04:33:26;;;;;;;13.25;3.40;;;;;;;;;;5107211;27;20404;-76
2022/10/11 04:35:56;;;;;;;16.83;4.20;;;;;;;;;;5075428;28;20459;-77
2022/10/11 04:38:22;;;;;;;15.88;3.55;;;;;;;;;;5074339;28;20822;-76
2022/10/11 04:40:48;;;;;;;13.93;3.42;;;;;;;;;;5071661;28;20463;-74
2022/10/11 04:43:15;;;;;;;15.00;4.20;;;;;;;;;;5069592;28;20965;-76
2022/10/11 04:45:42;;;;;;;15.35;4.10;;;;;;;;;;5071825;28;20396;-77
2022/10/11 04:48:08;;;;;;;18.90;3.90;;;;;;;;;;5088292;28;20431;-77
2022/10/11 04:50:34;;;;;;;14.00;3.13;;;;;;;;;;5052472;28;20471;-75
2022/10/11 04:53:00;;;;;;;16.88;3.60;;;;;;;;;;5068252;28;20419;-74
2022/10/11 04:55:27;;;;;;;14.82;3.38;;;;;;;;;;5070010;28;20517;-74
2022/10/11 04:57:54;;;;;;;16.48;3.58;;;;;;;;;;5055066;28;20420;-74
2022/10/11 05:00:20;;;;;;;14.55;3.20;;;;;;;;;;5071557;28;20914;-74
2022/10/11 05:02:46;;;;;;;19.67;3.45;;;;;;;;;;5070182;28;20427;-75
2022/10/11 05:05:16;;;;;;;18.48;3.45;;;;;;;;;;5054200;28;20407;-75
2022/10/11 05:07:42;;;;;;;19.03;3.60;;;;;;;;;;5072029;28;20434;-74
2022/10/11 05:10:08;;;;;;;15.45;3.33;;;;;;;;;;5070702;28;20502;-75
2022/10/11 05:12:34;;;;;;;13.00;3.35;;;;;;;;;;5069496;28;20499;-75
2022/10/11 05:15:01;;;;;;;16.73;3.28;;;;;;;;;;5070613;28;20918;-76
2022/10/11 05:17:27;;;;;;;15.23;3.23;;;;;;;;;;5055038;28;20446;-75
2022/10/11 05:19:53;;;;;;;12.93;3.38;;;;;;;;;;5068481;28;20479;-76
2022/10/11 05:22:19;;;;;;;13.50;3.22;;;;;;;;;;5069592;28;20510;-75
2022/10/11 05:24:45;;;;;;;12.30;3.20;;;;;;;;;;5069897;28;20458;-77
2022/10/11 05:27:11;;;;;;;18.67;2.90;;;;;;;;;;5070246;28;20424;-74
2022/10/11 05:29:37;;;;;;;16.10;3.55;;;;;;;;;;5054415;28;20403;-75
2022/10/11 05:32:03;;;;;;;15.50;3.33;;;;;;;;;;5051557;28;20505;-77
2022/10/11 05:34:32;;;;;;;11.18;3.00;;;;;;;;;;5071567;28;20433;-74
2022/10/11 05:36:58;;;;;;;15.43;3.80;;;;;;;;;;5063997;28;20434;-75
2022/10/11 05:39:25;;;;;;;14.70;3.45;;;;;;;;;;5031946;28;20927;-75
2022/10/11 05:41:51;;;;;;;16.08;3.40;;;;;;;;;;5067750;28;20830;-75
2022/10/11 05:44:17;;;;;;;15.57;3.58;;;;;;;;;;5053704;28;20485;-75
2022/10/11 05:46:43;;;;;;;16.27;3.60;;;;;;;;;;5069688;28;20419;-77
2022/10/11 05:49:09;;;;;;;14.77;4.97;;;;;;;;;;5088065;28;20396;-77
2022/10/11 05:51:35;;;;;;;15.70;4.82;;;;;;;;;;5101443;28;20511;-74
2022/10/11 05:54:01;;;;;;;17.73;5.35;;;;;;;;;;5070681;28;20420;-74
2022/10/11 05:56:27;;;;;;;15.93;4.20;;;;;;;;;;5071301;28;20427;-74
2022/10/11 05:58:53;;;;;;;22.02;3.67;;;;;;;;;;5103949;28;20480;-77
2022/10/11 06:01:21;;;;;;;15.25;3.10;;;6.90;99.90;;;;;;5051474;28;20810;-74
2022/10/11 06:03:48;;;;;;;17.83;3.15;;;;;;;;;;5070145;28;20419;-77
2022/10/11 06:06:14;;;;;;;15.55;3.50;;;;;;;;;;5070520;28;20419;-77
2022/10/11 06:08:40;;;;;;;14.70;3.75;;;;;;;;;;5069471;28;20499;-76
2022/10/11 06:11:26;;;;;;;19.45;3.75;;;;;;;;;;5066921;28;20426;-77
2022/10/11 06:13:53;;;;;;;18.08;3.40;;;;;;;;;;5051589;28;20397;-75
2022/10/11 06:16:20;;;;;;;14.07;3.28;;;;;;;;;;5053345;28;20841;-77
2022/10/11 06:18:46;;;;;;;15.00;3.22;;;;;;;;;;5070841;28;20404;-77
2022/10/11 06:21:12;;;;;;;19.60;3.42;;;;;;;;;;5068098;28;20415;-77
2022/10/11 06:23:39;;;;;;;17.38;3.47;;;;;;;;;;5069799;28;20415;-77
2022/10/11 06:26:06;;;;;;;17.38;3.92;;;;;;;;;;5069627;28;20461;-74
2022/10/11 06:28:33;;;;;;;14.80;3.40;;;;;;;;;;5102779;28;20420;-75
2022/10/11 06:30:59;;;;;;;15.23;4.03;;;;;;;;;;5068956;28;20508;-75
2022/10/11 06:33:25;;;;;;;16.15;3.58;;;;;;;;;;5069081;28;20511;-75
2022/10/11 06:36:01;;;;;;;16.60;3.60;;;;;;;;;;5068810;28;20427;-75
2022/10/11 06:38:27;;;;;;;12.68;3.20;;;;;;;;;;5069161;28;20888;-75
2022/10/11 06:40:53;;;;;;;12.82;3.33;;;;;;;;;;5100853;28;20430;-74
2022/10/11 06:43:19;;;;;;;14.93;3.20;;;;;;;;;;5069163;28;20481;-76
2022/10/11 06:45:48;;;;;;;14.18;3.17;;;;;;;;;;5075851;28;20421;-75
2022/10/11 06:48:15;;;;;;;13.98;3.75;;;;;;;;;;5070163;28;20449;-76
2022/10/11 06:50:41;;;;;;;8.98;2.72;;;;;;;;;;5070178;28;20461;-74
2022/10/11 06:53:07;;;;;;;14.07;2.90;;;;;;;;;;5050694;28;20989;-74
2022/10/11 06:55:33;;;;;;;16.10;3.50;;;;;;;;;;5065826;28;20525;-75
2022/10/11 06:57:59;;;;;;;13.82;2.92;;;;;;;;;;5066153;28;20558;-76
2022/10/11 07:00:25;;;;;;;17.50;3.58;;;;;;;;;;5056784;28;20506;-75
2022/10/11 07:02:51;;;;;;;14.27;3.35;;;;;;;;;;5064093;28;20838;-75
2022/10/11 07:05:17;;;;;;;16.75;3.30;;;;;;;;;;5095348;28;20424;-74
2022/10/11 07:07:44;;;;;;;11.95;3.95;;;;;;;;;;5066479;28;20452;-75
2022/10/11 07:10:10;;;;;;;15.50;4.03;;;;;;;;;;5069695;28;20415;-75
2022/10/11 07:12:36;;;;;;;13.63;3.45;;;;;;;;;;5069760;28;20411;-75
2022/10/11 07:15:02;;;;;;;13.68;4.43;;;;;;;;;;5057892;28;20423;-74
2022/10/11 07:17:28;;;;;;;14.57;4.30;;;;;;;;;;5070736;28;20542;-75
2022/10/11 07:19:54;;;;;;;16.48;4.70;;;;;;;;;;5036198;28;20432;-75
2022/10/11 07:22:21;;;;;;;15.20;3.15;;;;;;;;;;5058373;28;20419;-75
2022/10/11 07:24:48;;;;;;;14.73;3.10;;;;;;;;;;5105694;28;20428;-75
2022/10/11 07:27:14;;;;;;;13.95;2.95;;;;;;;;;;5054559;28;20941;-76
2022/10/11 07:29:40;;;;;;;13.77;3.33;;;;;;;;;;5071760;28;20530;-76
2022/10/11 07:32:07;;;;;;;14.02;3.13;;;;;;;;;;5073434;28;20428;-76
2022/10/11 07:34:33;;;;;;;12.43;2.70;;;;;;;;;;5074493;28;20415;-76
2022/10/11 07:36:59;;;;;;;13.02;2.97;;;;;;;;;;5068641;28;20427;-76
2022/10/11 07:39:25;;;;;;;17.67;3.40;;;;;;;;;;5069631;28;20455;-76
2022/10/11 07:41:51;;;;;;;14.73;3.20;;;;;;;;;;5056859;28;20423;-76
2022/10/11 07:44:17;;;;;;;13.00;3.13;;;10.20;99.90;;;;;;5074714;28;20425;-75
2022/10/11 07:46:43;;;;;;;13.27;2.63;;;;;;;;;;5074531;28;20428;-76
2022/10/11 07:49:09;;;;;;;11.57;2.60;;;;;;;;;;5075840;28;20484;-76
2022/10/11 07:51:35;;;;;;;15.40;2.97;;;;;;;;;;5075977;28;20430;-76
2022/10/11 07:54:02;;;;;;;14.52;3.05;;;;;;;;;;5092160;28;20819;-76
2022/10/11 07:56:29;;;;;;;10.63;2.90;;;;;;;;;;5109839;28;20426;-76
2022/10/11 07:59:00;;;;;;;12.88;2.72;;;;;;;;;;5104943;28;20500;-77
2022/10/11 08:01:27;;;;;;;10.60;2.58;;;10.90;99.90;;;;;;5072300;28;20419;-75
2022/10/11 08:03:53;;;;;;;11.02;2.70;;;;;;;;;;5070418;28;20418;-76
2022/10/11 08:06:21;;;;;;;12.65;2.80;;;;;;;;;;5109859;28;20425;-76
2022/10/11 08:08:48;;;;;;;14.90;3.17;;;11.20;99.90;;;;;;5073676;28;20422;-76
2022/10/11 08:11:22;;;;;;;11.05;2.53;;;10.90;99.90;;;;;;5054309;28;20427;-75
2022/10/11 08:13:49;;;;;;;19.30;3.10;;;;;;;;;;5083987;28;20406;-77
2022/10/11 08:16:15;;;;;;;11.88;3.03;;;;;;;;;;5076033;28;20451;-77
2022/10/11 08:18:41;;;;;;;14.17;3.07;;;;;;;;;;5074749;28;20417;-77
2022/10/11 08:21:09;;;;;;;10.32;2.88;;;11.50;99.90;;;;;;5089238;28;20985;-78
2022/10/11 08:23:35;;;;;;;13.10;2.72;;;;;;;;;;5071548;28;20418;-77
2022/10/11 08:26:01;;;;;;;9.07;2.50;;;;;;;;;;5073376;28;20865;-76
2022/10/11 08:28:27;;;;;;;10.68;2.33;;;;;;;;;;5104044;28;20429;-78
2022/10/11 08:30:54;;;;;;;13.32;2.60;;;;;;;;;;5062015;28;20533;-77
2022/10/11 08:33:21;;;;;;;13.73;2.88;;;;;;;;;;5073260;28;20433;-77
2022/10/11 08:35:48;;;;;;;12.18;2.70;;;;;;;;;;5080085;28;20410;-76
2022/10/11 08:38:14;;;;;;;21.45;3.30;;;;;;;;;;5072424;28;20999;-76
2022/10/11 08:40:49;;;;;;;12.20;2.65;;;12.30;99.90;;;;;;5090229;28;20414;-76
2022/10/11 08:43:28;;;;;;;15.93;3.20;;;;;;;;;;5056600;28;20531;-76
2022/10/11 08:45:55;;;;;;;13.30;2.97;;;;;;;;;;5070516;28;20801;-76
2022/10/11 08:48:36;;;;;;;13.65;3.28;;;;;;;;;;5087177;28;20553;-77
2022/10/11 08:51:06;;;;;;;12.35;2.83;;;;;;;;;;5087074;28;20441;-76
2022/10/11 08:53:41;;;;;;;13.93;2.93;;;;;;;;;;5069783;28;20448;-78
2022/10/11 08:56:10;;;;;;;13.75;2.75;;;;;;;;;;5083986;28;20944;-76
2022/10/11 08:59:04;;;;;;;10.13;2.40;;;;;;;;;;5105546;28;20933;-76
2022/10/11 09:01:37;;;;;;;13.07;2.85;;;;;;;;;;5089026;28;20415;-76
2022/10/11 09:04:05;;;;;;;12.48;2.70;;;;;;;;;;5072150;28;20505;-76
2022/10/11 09:06:49;;;;;;;15.68;3.10;;;;;;;;;;5089192;28;20902;-76
2022/10/11 09:09:27;;;;;;;15.73;3.08;;;13.60;99.90;;;;;;5074881;28;20410;-76
2022/10/11 09:12:00;;;;;;;11.07;2.42;;;;;;;;;;5100160;28;20475;-77
2022/10/11 09:14:56;;;;;;;11.50;2.38;;;13.60;99.90;;;;;;5073629;28;20479;-76
2022/10/11 09:17:22;;;;;;;13.43;3.15;;;;;;;;;;5105635;28;20420;-76
2022/10/11 09:20:07;;;;;;;13.05;3.05;;;;;;;;;;5075354;28;20422;-80
2022/10/11 09:22:41;;;;;;;12.90;2.95;;;;;;;;;;5088319;28;20533;-76
2022/10/11 09:25:18;;;;;;;9.43;2.50;;;13.80;99.90;;;;;;5063153;28;20973;-75
2022/10/11 09:27:55;;;;;;;14.55;3.25;;;14.10;99.90;;;;;;5048482;28;20418;-76
2022/10/11 09:30:20;;;;;;;11.47;3.07;;;14.10;99.90;;;;;;5074857;28;20410;-76
2022/10/11 09:32:58;;;;;;;11.90;2.50;;;14.30;99.90;;;;;;5070874;28;20496;-77
2022/10/11 09:35:24;;;;;;;15.43;3.15;;;;;;;;;;5090071;28;20448;-77
2022/10/11 09:38:05;;;;;;;13.77;3.05;;;;;;;;;;5074130;28;20405;-76
2022/10/11 09:40:47;;;;;;;14.07;2.60;;;;;;;;;;5074189;28;20428;-76
2022/10/11 09:43:13;;;;;;;20.90;3.47;;;;;;;;;;5103377;28;20487;-76
2022/10/11 09:45:43;;;;;;;12.65;2.90;;;;;;;;;;5104434;28;20416;-76
2022/10/11 09:48:14;;;;;;;15.77;3.08;;;15.10;99.90;;;;;;5090802;28;20975;-76
2022/10/11 09:50:40;;;;;;;12.00;2.55;;;;;;;;;;5088027;28;20735;-76
2022/10/11 09:53:06;;;;;;;13.87;2.80;;;;;;;;;;5073475;28;20502;-76
2022/10/11 09:56:00;;;;;;;10.57;2.40;;;14.70;99.90;;;;;;5078939;28;20426;-75
2022/10/11 09:58:30;;;;;;;14.55;2.42;;;14.50;99.90;;;;;;5075648;28;20429;-76
2022/10/11 10:00:59;;;;;;;16.42;2.63;;;;;;;;;;5071048;28;20427;-76
2022/10/11 10:03:39;;;;;;;12.88;2.60;;;14.70;99.90;;;;;;5089019;28;20489;-76
2022/10/11 10:06:30;;;;;;;9.63;2.70;;;14.70;99.90;;;;;;5056303;28;20418;-76
2022/10/11 10:09:33;;;;;;;9.75;2.47;;;15.10;99.90;;;;;;5071541;28;20425;-75
2022/10/11 10:12:10;;;;;;;11.05;2.30;;;;;;;;;;5070151;28;20984;-76
2022/10/11 10:14:36;;;;;;;9.65;1.80;;;15.00;99.90;;;;;;5071984;28;20578;-74
2022/10/11 10:17:13;;;;;;;12.07;2.80;;;15.20;99.90;;;;;;5089069;28;20409;-75
2022/10/11 10:19:50;;;;;;;13.73;2.88;;;15.40;99.90;;;;;;5070409;28;20497;-75
2022/10/11 10:22:32;;;;;;;9.05;2.45;;;15.30;99.90;;;;;;5082064;28;20502;-74
2022/10/11 10:25:00;;;;;;;11.32;2.30;;;15.30;99.90;;;;;;5074514;28;20410;-76
2022/10/11 10:27:28;;;;;;;9.55;2.38;;;15.50;99.90;;;;;;5107454;28;20400;-76
2022/10/11 10:30:03;;;;;;;9.00;2.08;;;;;;;;;;5072367;28;20937;-75
2022/10/11 10:32:56;;;;;;;9.13;2.45;;;15.60;99.90;;;;;;5072052;28;20909;-75
2022/10/11 10:35:25;;;;;;;11.52;2.53;;;;;;;;;;5061481;28;20422;-77
2022/10/11 10:38:10;;;;;;;13.80;2.37;;;;;;;;;;5072575;28;20551;-75
2022/10/11 10:40:43;;;;;;;9.82;2.38;;;;;;;;;;5084933;28;20490;-76
2022/10/11 10:43:18;;;;;;;10.07;2.20;;;15.60;99.90;;;;;;5062995;28;20504;-76
2022/10/11 10:46:16;;;;;;;10.23;2.10;;;15.80;99.90;;;;;;5068016;28;20429;-74
2022/10/11 10:48:49;;;;;;;10.00;2.15;;;;;;;;;;5049603;28;20404;-73
2022/10/11 10:51:23;;;;;;;12.98;2.25;;;;;;;;;;5059483;28;20415;-77
2022/10/11 10:54:08;;;;;;;9.77;2.40;;;;;;;;;;5070211;28;20450;-77
2022/10/11 10:56:48;;;;;;;12.38;2.30;;;16.30;99.90;;;;;;5056940;28;20460;-77
2022/10/11 10:59:39;;;;;;;13.60;2.55;;;15.90;99.90;;;;;;5073297;28;20404;-76
2022/10/11 11:02:20;;;;;;;6.70;1.80;;;15.90;99.90;;;;;;5074757;28;20811;-75
2022/10/11 11:05:10;;;;;;;9.10;2.20;;;;;;;;;;5105784;28;20717;-75
2022/10/11 11:07:44;;;;;;;10.65;2.65;;;15.30;99.90;;;;;;5033740;28;20427;-75
2022/10/11 11:10:32;;;;;;;10.13;2.40;;;15.60;99.90;;;;;;5068899;28;20449;-75
2022/10/11 11:13:05;;;;;;;7.97;1.90;;;;;;;;;;5055648;28;20988;-75
2022/10/11 11:15:49;;;;;;;10.63;2.17;;;16.00;99.90;;;;;;5056708;28;20415;-76
2022/10/11 11:18:15;;;;;;;6.97;1.55;;;;;;;;;;5073187;28;20771;-75
2022/10/11 11:20:47;;;;;;;8.55;2.08;;;;;;;;;;5056983;28;20549;-76
2022/10/11 11:23:27;;;;;;;10.82;2.20;;;16.00;99.90;;;;;;5071188;28;20466;-75
2022/10/11 11:26:48;;;;;;;7.68;2.35;;;16.20;99.90;;;;;;5071283;28;20427;-74
2022/10/11 11:29:43;;;;;;;7.97;2.03;;;16.20;99.90;;;;;;4984316;28;20509;-75
2022/10/11 11:32:24;;;;;;;9.27;2.17;;;;;;;;;;4960568;28;20494;-75
2022/10/11 11:35:13;;;;;;;10.00;2.30;;;16.20;99.90;;;;;;5062243;28;20423;-75
2022/10/11 11:37:43;;;;;;;10.53;2.20;;;16.60;99.90;;;;;;5055669;28;20477;-75
2022/10/11 11:40:18;;;;;;;9.48;1.92;;;16.80;99.90;;;;;;5073060;28;20434;-75
2022/10/11 11:42:48;;;;;;;8.85;2.00;;;;;;;;;;5070405;28;20432;-74
2022/10/11 11:45:21;;;;;;;9.98;2.17;;;17.00;99.90;;;;;;5105287;28;20474;-75
2022/10/11 11:47:59;;;;;;;7.90;1.83;;;17.00;99.90;;;;;;5056355;28;20407;-74
2022/10/11 11:50:25;;;;;;;8.90;2.00;;;16.90;99.90;;;;;;5072773;28;21024;-74
2022/10/11 11:53:03;;;;;;;7.50;1.80;;;16.90;99.90;;;;;;5054044;28;20430;-76
2022/10/11 11:55:48;;;;;;;8.73;1.83;;;;;;;;;;5070043;28;20411;-74
2022/10/11 11:58:35;;;;;;;7.50;1.58;;;16.90;99.90;;;;;;5071410;28;20573;-74
2022/10/11 12:01:28;;;;;;;7.50;1.60;;;17.40;99.90;;;;;;5063976;28;20411;-72
2022/10/11 12:04:00;;;;;;;7.55;1.90;;;17.80;99.90;;;;;;5056055;28;20404;-73
2022/10/11 12:06:33;;;;;;;6.90;1.80;;;17.70;99.90;;;;;;5071597;28;20899;-72
2022/10/11 12:09:06;;;;;;;6.13;1.60;;;18.10;99.90;;;;;;5070557;28;20451;-74
2022/10/11 12:11:49;;;;;;;7.57;2.00;;;18.00;99.90;;;;;;5100938;28;20751;-74
2022/10/11 12:14:15;;;;;;;7.67;1.97;;;18.10;99.90;;;;;;5063889;28;20412;-74
2022/10/11 12:17:06;;;;;;;7.47;2.00;;;18.20;99.90;;;;;;5072288;28;20468;-74
2022/10/11 12:19:32;;;;;;;8.20;1.98;;;18.60;99.90;;;;;;5067501;28;20407;-74
2022/10/11 12:22:34;;;;;;;14.45;2.00;;;18.50;99.90;;;;;;5070085;28;20419;-74
2022/10/11 12:25:09;;;;;;;7.22;2.05;;;18.20;99.90;;;;;;5114701;27;20402;-73
2022/10/11 12:27:45;;;;;;;7.65;2.00;;;18.50;99.90;;;;;;5092843;28;20406;-73
2022/10/11 12:30:54;;;;;;;7.67;1.77;;;18.30;99.90;;;;;;5073859;28;20423;-74
2022/10/11 12:33:44;;;;;;;7.32;1.70;;;18.60;99.90;;;;;;5054424;28;20420;-74
2022/10/11 12:36:31;;;;;;;7.13;1.93;;;18.50;99.90;;;;;;5105564;28;20408;-73
2022/10/11 12:39:18;;;;;;;7.20;1.80;;;18.40;99.90;;;;;;5067053;28;20423;-72
2022/10/11 12:42:05;;;;;;;9.68;2.00;;;18.60;99.90;;;;;;5069713;28;20416;-73
2022/10/11 12:44:31;;;;;;;9.10;1.90;;;18.50;99.90;;;;;;5069486;28;20423;-72
2022/10/11 12:47:04;;;;;;;7.32;1.85;;;20.60;99.90;;;;;;5067762;28;20466;-73
2022/10/11 12:49:32;;;;;;;10.45;2.30;;;19.10;99.90;;;;;;5059929;28;20426;-73
2022/10/11 12:52:00;;;;;;;9.13;2.00;;;18.90;99.90;;;;;;5064643;28;20420;-73
2022/10/11 12:54:53;;;;;;;5.70;1.77;;;18.90;99.90;;;;;;5065742;28;20415;-73
2022/10/11 12:57:31;;;;;;;8.02;1.80;;;19.30;99.90;;;;;;5081104;28;20780;-74
2022/10/11 13:00:17;;;;;;;7.35;2.00;;;19.40;99.90;;;;;;5063846;28;20449;-73
2022/10/11 13:02:43;;;;;;;6.77;1.70;;;18.80;99.90;;;;;;5064737;28;20924;-73
2022/10/11 13:05:26;;;;;;;8.60;1.85;;;18.20;99.90;;;;;;5050443;28;20838;-73
2022/10/11 13:07:54;;;;;;;9.93;2.10;;;;;;;;;;5066117;28;20431;-73
2022/10/11 13:10:38;;;;;;;10.48;2.20;;;17.20;99.90;;;;;;5067409;28;20871;-74
2022/10/11 13:13:15;;;;;;;7.55;2.00;;;16.90;99.90;;;;;;5063255;28;20514;-73
2022/10/11 13:15:43;;;;;;;8.88;2.15;;;;;;;;;;5066185;28;20775;-73
2022/10/11 13:18:13;;;;;;;9.80;2.03;;;16.40;99.90;;;;;;5065179;28;20415;-73
2022/10/11 13:20:39;;;;;;;6.57;1.90;;;;;;;;;;5049078;28;20446;-73
2022/10/11 13:23:23;;;;;;;7.30;2.00;;;;;;;;;;5065293;28;20422;-73
2022/10/11 13:25:49;;;;;;;8.43;1.98;;;;;;;;;;5063237;28;20424;-73
2022/10/11 13:28:15;;;;;;;5.00;1.60;;;;;;;;;;5064481;28;20423;-74
2022/10/11 13:30:45;;;;;;;8.80;1.88;;;15.90;99.90;;;;;;5063351;28;20412;-73
2022/10/11 13:33:19;;;;;;;8.07;1.90;;;16.30;99.90;;;;;;5061825;28;20416;-73
2022/10/11 13:35:46;;;;;;;10.52;2.28;;;;;;;;;;5097386;28;20411;-73
2022/10/11 13:38:39;;;;;;;9.32;2.03;;;16.40;99.90;;;;;;5100418;28;20569;-75
2022/10/11 13:41:07;;;;;;;8.07;1.70;;;;;;;;;;5051433;28;20400;-74
2022/10/11 13:43:33;;;;;;;5.50;1.85;;;;;;;;;;5103315;28;20438;-73
2022/10/11 13:46:03;;;;;;;6.97;1.75;;;16.70;99.90;;;;;;5051174;28;20420;-74
2022/10/11 13:48:29;;;;;;;8.05;2.10;;;;;;;;;;5070384;28;20420;-73
2022/10/11 13:51:26;;;;;;;9.20;2.00;;;16.60;99.90;;;;;;5054694;28;20407;-74
2022/10/11 13:54:06;;;;;;;10.10;2.10;;;16.90;99.90;;;;;;5086633;28;20436;-73
2022/10/11 13:56:46;;;;;;;8.63;2.13;;;16.30;99.90;;;;;;5060851;28;20505;-72
2022/10/11 13:59:21;;;;;;;11.75;1.85;;;16.60;99.90;;;;;;5060499;28;20793;-73
2022/10/11 14:01:48;;;;;;;9.37;2.07;;;;;;;;;;5052554;28;20427;-74
2022/10/11 14:04:16;;;;;;;8.05;1.90;;;16.70;99.90;;;;;;5068795;28;20427;-74
2022/10/11 14:06:51;;;;;;;9.05;1.70;;;16.30;99.90;;;;;;5071890;28;20469;-73
2022/10/11 14:09:17;;;;;;;10.95;2.13;;;16.20;99.90;;;;;;5051039;28;20521;-74
2022/10/11 14:11:43;;;;;;;8.35;1.85;;;;;;;;;;5052777;28;20795;-74
2022/10/11 14:14:31;;;;;;;9.10;1.58;;;15.90;99.90;;;;;;5061494;28;20419;-74
2022/10/11 14:17:03;;;;;;;6.80;1.80;;;16.20;99.90;;;;;;5064551;28;20398;-75
2022/10/11 14:19:29;;;;;;;8.23;1.77;;;16.20;99.90;;;;;;5048115;28;20486;-74
2022/10/11 14:21:55;;;;;;;8.10;1.97;;;;;;;;;;5063930;28;20935;-74
2022/10/11 14:24:21;;;;;;;7.87;1.80;;;;;;;;;;5051400;28;20415;-74